Terminal Aerodrome Forecast
Issued by NWS

Home | Current Version | Previous Version | Text Only | Print | Product List | Glossary On
Versions: 1 2 3 4 5 6 7 8 9 10 11 12 13 14 15 16 17 18 19 20 21 22 23 24 25 26 27 28 29
359
FTUS46 KPDT 081805 AAA
TAFBDN
TAF AMD
KBDN 081805Z 0818/0918 VRB05KT 1 1/2SM -SN BR SCT001 OVC005
      TEMPO 0818/0820 1/4SM +SN FZFG VV001
     FM082300 VRB05KT 3SM -SNPL BR BKN015 OVC040
     FM090400 VRB05KT 5SM -FZDZPL SCT010 BKN025
     FM091000 21006KT P6SM SCT035 BKN050=

USA.gov is the U.S. government's official web portal to all federal, state and local government web resources and services.